TVF8777 DTTA-LFLL
Flight info
| Callsign | TVF8777 |
|---|---|
| Flight time | N/A |
| Altitude | 24000 |
| Route | TOBIB3C TOBIB A725 TANIT/N0464F340 UA725 OSMAR DCT TIVUK DCT QUENN DCT VELAD DCT UNITA DCT IXITO DCT ANAKI DCT LAGEN DCT TOP/N0426F240 DCT RONOP DCT GIGUS/N0421F230 Z40 AMVAR |
| Aircraft | B738/M-SDE2E3FGHIRWXY/LB1 |
Departure
| Time | 2026-05-04 12:39 |
|---|---|
| Airport | Tunis Carthage International Airport (DTTA) |
Arrival
| Time | N/A |
|---|---|
| Airport | Lyon Saint-Exupéry Airport (LFLL) |
| Time | Latitude | Longitude | Altitude | Speed | Heading |
|---|---|---|---|---|---|
| 2026-05-04 12:28 | 36.84820 | 10.21939 | 29 ft | 0 kts | 282° |
| 2026-05-04 12:32 | 36.84815 | 10.21965 | 29 ft | 4 kts | 283° |
| 2026-05-04 12:32 | 36.84801 | 10.22023 | 29 ft | 4 kts | 323° |
| 2026-05-04 12:32 | 36.84778 | 10.22029 | 29 ft | 4 kts | 10° |
| 2026-05-04 12:33 | 36.84767 | 10.22026 | 29 ft | 1 kts | 11° |
| 2026-05-04 12:33 | 36.84766 | 10.22026 | 29 ft | 0 kts | 11° |
| 2026-05-04 12:34 | 36.84774 | 10.22028 | 29 ft | 5 kts | 11° |
| 2026-05-04 12:35 | 36.84841 | 10.22037 | 29 ft | 11 kts | 4° |
| 2026-05-04 12:35 | 36.84896 | 10.22100 | 29 ft | 11 kts | 78° |
| 2026-05-04 12:35 | 36.84888 | 10.22198 | 29 ft | 11 kts | 102° |
| 2026-05-04 12:35 | 36.84871 | 10.22293 | 29 ft | 12 kts | 103° |
| 2026-05-04 12:36 | 36.84898 | 10.22368 | 30 ft | 7 kts | 19° |
| 2026-05-04 12:36 | 36.84948 | 10.22383 | 30 ft | 7 kts | 14° |
| 2026-05-04 12:36 | 36.84996 | 10.22373 | 30 ft | 8 kts | 326° |
| 2026-05-04 12:36 | 36.85028 | 10.22300 | 30 ft | 12 kts | 294° |
| 2026-05-04 12:37 | 36.85067 | 10.22184 | 30 ft | 20 kts | 292° |
| 2026-05-04 12:37 | 36.85134 | 10.21978 | 29 ft | 30 kts | 292° |
| 2026-05-04 12:37 | 36.85218 | 10.21750 | 29 ft | 26 kts | 313° |
| 2026-05-04 12:37 | 36.85376 | 10.21771 | 30 ft | 24 kts | 40° |
| 2026-05-04 12:38 | 36.85362 | 10.21961 | 31 ft | 24 kts | 112° |
| 2026-05-04 12:38 | 36.85224 | 10.22376 | 34 ft | 86 kts | 112° |
| 2026-05-04 12:38 | 36.84915 | 10.23306 | 28 ft | 147 kts | 112° |
| 2026-05-04 12:38 | 36.84470 | 10.24658 | 308 ft | 179 kts | 111° |
| 2026-05-04 12:39 | 36.83975 | 10.26050 | 1363 ft | 173 kts | 118° |